Time;durP1;ratioP1;P1;durP2;ratioP2;P2;SDS_P1;SDS_P2;PMS_P1;PMS_P2;Temp;Humidity;BMP_temperature;BMP_pressure;BME280_temperature;BME280_humidity;BME280_pressure;Samples;Min_cycle;Max_cycle;Signal;HPM_P1;HPM_P2
2023/01/27 00:00:15;;;;;;;7.45;3.50;;;7.90;62.40;;;;;;5106598;27;20088;-76
2023/01/27 00:02:42;;;;;;;4.85;3.25;;;7.90;62.50;;;;;;5128718;27;20065;-78
2023/01/27 00:05:10;;;;;;;4.70;2.75;;;7.90;62.50;;;;;;5125373;27;20413;-74
2023/01/27 00:07:36;;;;;;;6.40;2.95;;;7.90;62.50;;;;;;5126220;27;20383;-78
2023/01/27 00:10:03;;;;;;;5.47;2.95;;;7.90;62.50;;;;;;5111900;27;20031;-79
2023/01/27 00:15:14;;;;;;;5.15;2.88;;;7.90;62.60;;;;;;5127293;27;20060;-78
2023/01/27 00:17:41;;;;;;;5.35;2.85;;;7.80;62.40;;;;;;5118570;27;20040;-78
2023/01/27 00:20:09;;;;;;;5.00;3.30;;;7.80;62.40;;;;;;5115274;27;20104;-77
2023/01/27 00:25:20;;;;;;;3.53;2.83;;;7.80;62.90;;;;;;5117047;27;20066;-78
2023/01/27 00:27:46;;;;;;;6.20;2.80;;;7.80;62.40;;;;;;5129889;27;20038;-78
2023/01/27 00:30:12;;;;;;;4.45;3.10;;;7.80;62.40;;;;;;5129117;27;20031;-79
2023/01/27 00:35:24;;;;;;;4.63;2.85;;;7.80;62.40;;;;;;5131250;27;20035;-79
2023/01/27 00:37:51;;;;;;;4.22;2.90;;;7.80;62.40;;;;;;5130184;27;20046;-79
2023/01/27 00:40:18;;;;;;;6.70;3.88;;;7.80;62.40;;;;;;5120879;27;20122;-75
2023/01/27 00:42:44;;;;;;;8.02;2.95;;;7.80;62.40;;;;;;5113161;27;20150;-77
2023/01/27 00:47:56;;;;;;;4.40;3.17;;;7.70;62.70;;;;;;5124030;27;20043;-78
2023/01/27 00:50:23;;;;;;;4.78;2.72;;;7.70;62.20;;;;;;5124712;27;20031;-78
2023/01/27 00:52:51;;;;;;;5.32;2.50;;;7.70;62.20;;;;;;5126900;27;20114;-77
2023/01/27 00:55:18;;;;;;;3.63;2.60;;;7.70;62.30;;;;;;5113702;27;20031;-76
2023/01/27 00:57:44;;;;;;;4.55;3.33;;;7.70;62.30;;;;;;5126515;27;20045;-78
2023/01/27 01:00:11;;;;;;;5.25;2.95;;;7.70;62.30;;;;;;5128172;27;20028;-77
2023/01/27 01:02:37;;;;;;;4.30;3.00;;;7.70;62.30;;;;;;5127126;27;20054;-78
2023/01/27 01:05:03;;;;;;;4.32;2.78;;;7.70;62.30;;;;;;5124897;27;20397;-76
2023/01/27 01:07:29;;;;;;;3.50;2.67;;;7.70;62.30;;;;;;5128261;27;20027;-76
2023/01/27 01:09:55;;;;;;;5.05;2.67;;;7.60;62.20;;;;;;5117871;27;20618;-75
2023/01/27 01:12:22;;;;;;;5.15;2.72;;;7.70;62.30;;;;;;5126241;27;20528;-78
2023/01/27 01:14:49;;;;;;;4.85;3.35;;;7.60;62.20;;;;;;5124529;27;20055;-76
2023/01/27 01:17:15;;;;;;;5.10;2.90;;;7.60;62.20;;;;;;5120427;27;20616;-76
2023/01/27 01:19:41;;;;;;;2.83;2.53;;;7.70;62.30;;;;;;5113849;27;20040;-77
2023/01/27 01:22:07;;;;;;;4.30;3.00;;;7.60;62.70;;;;;;5112071;27;20031;-77
2023/01/27 01:24:33;;;;;;;5.38;2.65;;;7.70;62.40;;;;;;5124383;27;20039;-78
2023/01/27 01:26:59;;;;;;;3.72;2.63;;;7.60;62.10;;;;;;5122261;28;20023;-76
2023/01/27 01:29:25;;;;;;;3.42;2.40;;;7.60;62.10;;;;;;5124592;27;20053;-76
2023/01/27 01:31:52;;;;;;;5.55;3.38;;;7.60;62.20;;;;;;5124529;27;20031;-78
2023/01/27 01:34:18;;;;;;;4.18;2.58;;;7.60;62.20;;;;;;5108409;28;20035;-76
2023/01/27 01:36:44;;;;;;;5.95;2.50;;;7.60;62.10;;;;;;5124812;28;20039;-73
2023/01/27 01:39:10;;;;;;;4.47;3.00;;;7.60;62.10;;;;;;5122696;27;20449;-72
2023/01/27 01:41:36;;;;;;;4.68;2.92;;;7.60;62.10;;;;;;5121969;28;20433;-74
2023/01/27 01:44:21;;;;;;;4.47;2.30;;;7.60;62.10;;;;;;5105893;28;20174;-74
2023/01/27 01:46:47;;;;;;;4.18;2.90;;;7.60;62.10;;;;;;5122070;27;20069;-76
2023/01/27 01:49:15;;;;;;;4.10;2.42;;;7.60;62.10;;;;;;5122330;27;20074;-72
2023/01/27 01:51:49;;;;;;;3.05;2.30;;;7.50;62.00;;;;;;5123655;27;20039;-74
2023/01/27 01:54:43;;;;;;;4.00;2.33;;;7.50;61.90;;;;;;5123529;27;20054;-73
2023/01/27 01:57:13;;;;;;;6.05;2.22;;;7.50;61.90;;;;;;5108573;28;20053;-74
2023/01/27 01:59:52;;;;;;;3.63;2.33;;;7.50;61.90;;;;;;5122383;28;20066;-76
2023/01/27 02:02:21;;;;;;;4.28;2.40;;;7.50;61.90;;;;;;5120077;27;20389;-74
2023/01/27 02:04:53;;;;;;;4.88;2.65;;;7.50;61.90;;;;;;5120670;27;20031;-73
2023/01/27 02:07:37;;;;;;;4.40;2.30;;;7.50;61.90;;;;;;5121100;27;20550;-73
2023/01/27 02:10:03;;;;;;;5.07;2.00;;;7.50;61.90;;;;;;5117719;27;20031;-73
2023/01/27 02:12:33;;;;;;;5.32;2.30;;;7.50;61.80;;;;;;5116765;28;20099;-74
2023/01/27 02:14:59;;;;;;;2.95;1.80;;;7.50;61.80;;;;;;5122173;27;20126;-74
2023/01/27 02:17:26;;;;;;;4.28;2.40;;;7.50;61.80;;;;;;5117515;27;20138;-74
2023/01/27 02:20:07;;;;;;;3.63;2.05;;;7.60;61.90;;;;;;5089397;27;20027;-74
2023/01/27 02:23:10;;;;;;;4.20;2.15;;;7.50;61.70;;;;;;5118223;27;20039;-74
2023/01/27 02:26:02;;;;;;;3.70;2.20;;;7.50;61.70;;;;;;5109735;27;20386;-74
2023/01/27 02:28:30;;;;;;;2.70;1.70;;;7.50;61.60;;;;;;5104352;28;20048;-74
2023/01/27 02:30:57;;;;;;;3.88;1.90;;;7.50;61.60;;;;;;5113309;27;20043;-74
2023/01/27 02:33:23;;;;;;;3.72;1.85;;;7.50;61.60;;;;;;5125106;27;20160;-76
2023/01/27 02:36:13;;;;;;;3.38;2.00;;;7.50;61.60;;;;;;5125181;27;20030;-74
2023/01/27 02:39:00;;;;;;;3.95;1.75;;;7.40;61.40;;;;;;5093948;27;20049;-73
2023/01/27 02:41:33;;;;;;;2.05;1.45;;;7.50;61.50;;;;;;5122619;27;20031;-74
2023/01/27 02:44:00;;;;;;;5.38;1.73;;;7.50;61.60;;;;;;5105610;27;20043;-75
2023/01/27 02:46:26;;;;;;;3.50;1.92;;;7.40;61.40;;;;;;5112675;22;20040;-77
2023/01/27 02:48:52;;;;;;;3.80;1.95;;;7.40;61.30;;;;;;5100931;28;20067;-78
2023/01/27 02:51:18;;;;;;;5.90;1.92;;;7.40;61.30;;;;;;5098189;28;20267;-78
2023/01/27 02:53:45;;;;;;;4.22;1.80;;;7.40;61.30;;;;;;5088264;28;20113;-79
2023/01/27 02:56:11;;;;;;;3.13;1.85;;;7.40;61.30;;;;;;5101649;28;20479;-78
2023/01/27 02:58:37;;;;;;;3.22;1.70;;;7.40;61.80;;;;;;5090371;28;20082;-79
2023/01/27 03:01:11;;;;;;;4.50;2.10;;;7.40;61.20;;;;;;5087176;28;20027;-79
2023/01/27 03:03:42;;;;;;;4.05;1.92;;;7.40;61.30;;;;;;5090236;28;20040;-79
2023/01/27 03:06:09;;;;;;;3.50;2.10;;;7.40;61.20;;;;;;5091998;28;20197;-80
2023/01/27 03:08:35;;;;;;;2.97;1.80;;;7.40;61.20;;;;;;5091718;28;20048;-79
2023/01/27 03:11:04;;;;;;;3.55;2.00;;;7.40;61.20;;;;;;5099403;28;20379;-79
2023/01/27 03:13:30;;;;;;;4.63;2.60;;;7.30;61.00;;;;;;5108765;28;20040;-78
2023/01/27 03:18:48;;;;;;;4.60;2.13;;;7.40;61.10;;;;;;5104534;28;20028;-78
2023/01/27 03:21:16;;;;;;;6.22;2.35;;;7.30;60.90;;;;;;5108196;28;20092;-77
2023/01/27 03:23:44;;;;;;;3.15;2.00;;;7.30;60.90;;;;;;5107232;28;20040;-78
2023/01/27 03:26:11;;;;;;;5.07;2.10;;;7.30;60.90;;;;;;5091994;28;20050;-79
2023/01/27 03:28:42;;;;;;;4.25;2.50;;;7.30;60.90;;;;;;5089601;28;20043;-79
2023/01/27 03:31:18;;;;;;;3.33;2.10;;;7.30;60.80;;;;;;5110584;28;20032;-79
2023/01/27 03:33:51;;;;;;;3.05;1.90;;;7.30;60.80;;;;;;5108829;28;20040;-79
2023/01/27 03:47:39;;;;;;;4.45;2.00;;;7.20;60.80;;;;;;5104579;28;20043;-77
2023/01/27 03:50:10;;;;;;;2.80;2.25;;;7.10;60.60;;;;;;5100700;28;20145;-78
2023/01/27 03:52:36;;;;;;;3.92;2.22;;;7.10;60.70;;;;;;5108085;28;20085;-79
2023/01/27 03:55:03;;;;;;;3.65;2.50;;;7.10;60.70;;;;;;5081214;28;20037;-78
2023/01/27 03:57:29;;;;;;;5.28;2.28;;;7.10;60.70;;;;;;5103574;28;20035;-78
2023/01/27 03:59:55;;;;;;;3.05;2.33;;;7.10;60.80;;;;;;5086325;28;20514;-78
2023/01/27 04:07:51;;;;;;;4.10;3.05;;;7.00;60.50;;;;;;5110585;28;20039;-77
2023/01/27 04:10:17;;;;;;;3.72;2.40;;;7.10;60.70;;;;;;5083017;28;20053;-77
2023/01/27 04:12:46;;;;;;;3.03;2.35;;;7.00;60.60;;;;;;5103437;28;20032;-78
2023/01/27 04:15:12;;;;;;;3.65;2.53;;;7.00;60.60;;;;;;5107703;28;20028;-78
2023/01/27 04:17:39;;;;;;;3.50;3.10;;;7.00;60.60;;;;;;5109986;28;20231;-77
2023/01/27 04:20:06;;;;;;;3.42;2.42;;;6.90;60.40;;;;;;5109144;28;20058;-77
2023/01/27 04:22:32;;;;;;;3.30;2.55;;;6.90;60.50;;;;;;5098102;28;20446;-76
2023/01/27 04:24:57;;;;;;;7.32;3.20;;;6.90;60.50;;;;;;5107136;28;20039;-78
2023/01/27 04:27:26;;;;;;;6.00;2.72;;;6.90;60.50;;;;;;5106546;28;20036;-77
2023/01/27 04:29:52;;;;;;;4.38;2.60;;;6.90;61.00;;;;;;5099162;28;20110;-77
2023/01/27 04:32:18;;;;;;;4.03;2.58;;;6.90;60.50;;;;;;5107694;28;20042;-76
2023/01/27 04:34:44;;;;;;;3.47;2.30;;;6.80;60.40;;;;;;5107478;28;20390;-77
2023/01/27 04:37:10;;;;;;;3.72;2.67;;;6.80;60.40;;;;;;5106170;28;20031;-78
2023/01/27 04:39:37;;;;;;;4.63;2.60;;;6.80;60.40;;;;;;5092872;28;20392;-78
2023/01/27 04:42:03;;;;;;;3.85;2.75;;;6.70;60.30;;;;;;5107517;28;20169;-78
2023/01/27 04:44:29;;;;;;;3.58;2.95;;;6.70;60.40;;;;;;5077848;28;20036;-78
2023/01/27 04:46:55;;;;;;;5.07;3.00;;;6.60;60.20;;;;;;5094148;28;20429;-78
2023/01/27 04:49:21;;;;;;;4.28;2.70;;;6.60;60.30;;;;;;5101844;28;20031;-78
2023/01/27 04:51:47;;;;;;;3.65;2.58;;;6.60;60.40;;;;;;5105989;28;20682;-78
2023/01/27 04:54:14;;;;;;;3.70;2.25;;;6.50;60.30;;;;;;5108632;28;20035;-77
2023/01/27 04:56:54;;;;;;;2.92;2.67;;;6.50;60.30;;;;;;5094183;28;20029;-77
2023/01/27 04:59:20;;;;;;;2.78;2.30;;;6.50;60.40;;;;;;5082861;28;20142;-78
2023/01/27 05:01:46;;;;;;;3.22;2.33;;;6.50;60.40;;;;;;5098508;28;20487;-77
2023/01/27 05:04:12;;;;;;;4.07;2.97;;;6.50;61.00;;;;;;5099003;28;20299;-77
2023/01/27 05:06:38;;;;;;;3.22;2.33;;;6.50;60.50;;;;;;5099258;28;20126;-78
2023/01/27 05:09:04;;;;;;;3.58;2.85;;;6.50;60.50;;;;;;5099001;28;20112;-78
2023/01/27 05:11:30;;;;;;;3.65;2.35;;;6.50;60.50;;;;;;5075342;28;20071;-78
2023/01/27 05:13:56;;;;;;;2.28;2.08;;;6.50;60.50;;;;;;5074568;28;20035;-78
2023/01/27 05:16:24;;;;;;;3.80;2.35;;;6.50;61.00;;;;;;5077382;28;20035;-77
2023/01/27 05:18:51;;;;;;;3.00;2.58;;;6.50;60.50;;;;;;5079383;28;20066;-77
2023/01/27 05:21:20;;;;;;;3.53;2.85;;;6.50;60.50;;;;;;5106428;28;20165;-77
2023/01/27 05:23:46;;;;;;;3.92;3.00;;;6.50;60.50;;;;;;5088657;28;20134;-76
2023/01/27 05:29:08;;;;;;;3.58;2.50;;;6.40;60.30;;;;;;5008799;23;20058;-78
2023/01/27 05:31:34;;;;;;;4.18;2.95;;;6.40;60.30;;;;;;4936799;29;20047;-77
2023/01/27 05:34:01;;;;;;;3.80;2.97;;;6.40;60.40;;;;;;4930768;29;20039;-77
2023/01/27 05:36:28;;;;;;;4.68;2.55;;;6.40;60.40;;;;;;4929104;29;20040;-78
2023/01/27 05:38:55;;;;;;;7.07;2.97;;;6.40;60.40;;;;;;4929118;29;20178;-77
2023/01/27 05:41:21;;;;;;;3.50;3.08;;;6.40;60.50;;;;;;4931088;29;20378;-79
2023/01/27 05:43:53;;;;;;;3.30;3.00;;;6.40;60.40;;;;;;4948625;28;20035;-77
2023/01/27 05:46:21;;;;;;;3.25;2.60;;;6.40;60.50;;;;;;4950950;28;20027;-78
2023/01/27 05:48:50;;;;;;;3.50;3.20;;;6.40;60.50;;;;;;4946535;28;20314;-78
2023/01/27 05:51:18;;;;;;;3.20;2.75;;;6.40;60.50;;;;;;4931598;29;20043;-77
2023/01/27 05:53:44;;;;;;;4.78;3.75;;;6.40;60.50;;;;;;4952450;28;20110;-77
2023/01/27 05:56:12;;;;;;;3.22;2.78;;;6.40;60.60;;;;;;4948530;29;20130;-77
2023/01/27 05:58:38;;;;;;;4.53;3.20;;;6.40;60.60;;;;;;4941625;29;20038;-78
2023/01/27 06:01:13;;;;;;;3.22;2.92;;;6.40;60.70;;;;;;4946251;29;20483;-77
2023/01/27 06:03:40;;;;;;;3.47;3.13;;;6.40;60.70;;;;;;4943811;28;20019;-77
2023/01/27 06:06:07;;;;;;;5.10;3.40;;;6.30;60.60;;;;;;4947288;28;20039;-77
2023/01/27 06:08:34;;;;;;;6.60;3.70;;;6.30;60.70;;;;;;4944230;28;20173;-78
2023/01/27 06:11:00;;;;;;;4.05;3.20;;;6.30;60.70;;;;;;4937445;29;20050;-78
2023/01/27 06:13:27;;;;;;;6.68;3.85;;;6.30;60.70;;;;;;4947498;29;20050;-80
2023/01/27 06:15:56;;;;;;;3.53;3.22;;;6.30;60.70;;;;;;4947564;28;20121;-76
2023/01/27 06:18:22;;;;;;;5.07;3.58;;;6.30;60.80;;;;;;4944282;29;20050;-78
2023/01/27 06:20:49;;;;;;;7.60;3.90;;;6.30;60.80;;;;;;4948123;28;20045;-79
2023/01/27 06:23:16;;;;;;;5.05;3.90;;;6.20;60.60;;;;;;4927056;29;20039;-79
2023/01/27 06:25:45;;;;;;;4.78;3.70;;;6.30;60.80;;;;;;4939652;29;20566;-78
2023/01/27 06:28:11;;;;;;;6.43;4.05;;;6.20;60.60;;;;;;4950113;28;20078;-78
2023/01/27 06:30:39;;;;;;;5.88;3.55;;;6.30;60.80;;;;;;4951610;28;20098;-78
2023/01/27 06:33:05;;;;;;;4.95;3.58;;;6.20;60.70;;;;;;4965744;28;20041;-77
2023/01/27 06:35:32;;;;;;;4.30;3.90;;;6.20;60.70;;;;;;4951439;28;20034;-77
2023/01/27 06:37:59;;;;;;;5.30;3.78;;;6.20;60.70;;;;;;4954229;28;20660;-77
2023/01/27 06:40:26;;;;;;;4.60;3.47;;;6.20;60.70;;;;;;4949641;29;20282;-77
2023/01/27 06:42:52;;;;;;;3.53;3.22;;;6.20;60.70;;;;;;4955972;28;20042;-78
2023/01/27 06:45:18;;;;;;;4.10;3.55;;;6.30;61.00;;;;;;4926820;29;20476;-78
2023/01/27 06:47:43;;;;;;;4.95;4.07;;;6.20;60.80;;;;;;4962247;28;20078;-78
2023/01/27 06:50:10;;;;;;;6.15;4.15;;;6.30;61.00;;;;;;4958257;28;20027;-79
2023/01/27 06:52:37;;;;;;;5.82;3.95;;;6.20;60.80;;;;;;4965383;28;20065;-79
2023/01/27 06:55:04;;;;;;;4.90;4.30;;;6.30;61.00;;;;;;4958415;28;20039;-77
2023/01/27 06:57:30;;;;;;;4.05;3.65;;;6.30;61.10;;;;;;4947425;28;20034;-76
2023/01/27 06:59:56;;;;;;;4.15;3.65;;;6.20;60.90;;;;;;4951175;28;20027;-78
2023/01/27 07:02:22;;;;;;;5.40;3.85;;;6.30;61.10;;;;;;4946154;28;20027;-81
2023/01/27 07:04:48;;;;;;;5.47;4.22;;;6.30;61.10;;;;;;4939550;28;20043;-82
2023/01/27 07:07:14;;;;;;;6.35;4.28;;;6.30;61.10;;;;;;4953634;28;20027;-80
2023/01/27 07:09:39;;;;;;;6.03;4.40;;;6.30;61.10;;;;;;4946592;28;20420;-79
2023/01/27 07:12:05;;;;;;;5.97;4.25;;;6.30;61.10;;;;;;4944721;28;20027;-79
2023/01/27 07:14:31;;;;;;;5.00;4.60;;;6.30;61.70;;;;;;4955412;28;20101;-80
2023/01/27 07:16:57;;;;;;;6.03;5.05;;;6.30;61.10;;;;;;4949101;28;20105;-84
2023/01/27 07:19:23;;;;;;;6.63;4.75;;;6.30;61.20;;;;;;4956194;28;20604;-84
2023/01/27 07:21:49;;;;;;;5.32;4.82;;;6.30;61.20;;;;;;4943583;29;20043;-82
2023/01/27 07:24:15;;;;;;;5.95;4.97;;;6.30;61.20;;;;;;4944139;29;20379;-81
2023/01/27 07:26:42;;;;;;;5.95;5.15;;;6.30;61.20;;;;;;4947729;28;20601;-80
2023/01/27 07:29:08;;;;;;;7.10;5.60;;;6.30;61.20;;;;;;4943466;28;20611;-81
2023/01/27 07:31:34;;;;;;;8.98;5.38;;;6.30;61.30;;;;;;4938455;28;20031;-81
2023/01/27 07:34:00;;;;;;;6.25;5.35;;;6.30;61.30;;;;;;4949583;28;20377;-79
2023/01/27 07:36:26;;;;;;;6.75;5.53;;;6.30;61.30;;;;;;4957223;28;20415;-86
2023/01/27 07:38:52;;;;;;;6.00;5.40;;;6.30;61.30;;;;;;4952071;28;20035;-80
2023/01/27 07:41:18;;;;;;;6.47;5.63;;;6.30;61.40;;;;;;4942828;28;20031;-81
2023/01/27 07:43:44;;;;;;;6.28;5.68;;;6.30;61.40;;;;;;4940586;28;20043;-80
2023/01/27 07:46:10;;;;;;;6.20;5.65;;;6.30;61.40;;;;;;4941507;29;20445;-80
2023/01/27 07:48:36;;;;;;;7.07;6.38;;;6.30;61.40;;;;;;4942138;29;20197;-80
2023/01/27 07:51:02;;;;;;;8.70;6.03;;;6.40;61.60;;;;;;4940551;29;20512;-80
2023/01/27 07:53:28;;;;;;;6.60;5.72;;;6.30;61.50;;;;;;4943370;29;20035;-78
2023/01/27 07:55:53;;;;;;;7.53;6.47;;;6.30;61.50;;;;;;4925161;29;20039;-86
2023/01/27 07:58:19;;;;;;;6.60;6.00;;;6.40;61.70;;;;;;4942037;28;20042;-83
2023/01/27 08:00:45;;;;;;;6.90;6.20;;;6.30;61.50;;;;;;4944815;28;20039;-82
2023/01/27 08:03:21;;;;;;;6.65;5.72;;;6.30;61.60;;;;;;4944144;28;20046;-83
2023/01/27 08:05:48;;;;;;;7.68;6.90;;;6.40;61.70;;;;;;4938704;28;20046;-84
2023/01/27 08:08:14;;;;;;;6.93;6.22;;;6.40;61.70;;;;;;4944813;28;20513;-87
2023/01/27 08:10:40;;;;;;;7.70;6.78;;;6.40;61.70;;;;;;4944922;28;20042;-89
2023/01/27 08:13:06;;;;;;;7.13;6.47;;;6.40;61.70;;;;;;4945040;28;20035;-81
2023/01/27 08:15:31;;;;;;;7.40;6.70;;;6.40;61.70;;;;;;4945414;28;20042;-83
2023/01/27 08:17:58;;;;;;;9.27;7.50;;;6.40;61.70;;;;;;4945552;28;20503;-83
2023/01/27 08:20:26;;;;;;;7.45;6.70;;;6.40;61.70;;;;;;4945248;28;20038;-82
2023/01/27 08:22:52;;;;;;;8.60;7.25;;;6.40;61.70;;;;;;4941208;29;20034;-87
2023/01/27 08:25:19;;;;;;;6.85;6.22;;;6.40;61.80;;;;;;4945301;29;20035;-84
2023/01/27 08:27:49;;;;;;;7.88;7.07;;;6.40;61.80;;;;;;4940921;28;20395;-85
2023/01/27 08:30:15;;;;;;;9.68;7.68;;;6.40;61.80;;;;;;4942545;29;20549;-84
2023/01/27 08:32:41;;;;;;;9.07;6.68;;;6.50;62.00;;;;;;4934108;28;20028;-89
2023/01/27 08:35:07;;;;;;;7.55;6.75;;;6.40;61.90;;;;;;4928337;29;20035;-79
2023/01/27 08:37:33;;;;;;;8.95;6.65;;;6.50;62.00;;;;;;4942750;29;20063;-80
2023/01/27 08:39:59;;;;;;;8.98;7.30;;;6.50;62.10;;;;;;4944219;28;20069;-79
2023/01/27 08:42:25;;;;;;;8.20;7.20;;;6.50;62.10;;;;;;4938476;29;20059;-79
2023/01/27 08:44:51;;;;;;;8.68;7.53;;;6.50;62.10;;;;;;4939957;28;20027;-80
2023/01/27 08:47:16;;;;;;;8.45;7.32;;;6.50;62.00;;;;;;4952193;28;20042;-88
2023/01/27 08:49:42;;;;;;;8.75;7.80;;;6.50;62.00;;;;;;4946199;28;20398;-87
2023/01/27 08:52:08;;;;;;;9.68;8.07;;;6.60;62.20;;;;;;4963857;28;20041;-93
2023/01/27 08:54:34;;;;;;;8.10;7.30;;;6.60;62.20;;;;;;4970770;28;20367;-85
2023/01/27 08:57:00;;;;;;;10.02;8.27;;;6.60;62.20;;;;;;4943900;28;20089;-90
2023/01/27 08:59:26;;;;;;;9.32;7.53;;;6.60;62.20;;;;;;4945535;28;20066;-90
2023/01/27 09:01:52;;;;;;;8.32;7.53;;;6.60;62.20;;;;;;4945573;28;20078;-87
2023/01/27 09:04:18;;;;;;;8.02;7.25;;;6.70;62.30;;;;;;4945837;28;20027;-86
2023/01/27 09:06:47;;;;;;;8.88;7.97;;;6.70;62.30;;;;;;4971127;28;20042;-87
2023/01/27 09:09:13;;;;;;;8.13;7.32;;;6.70;62.30;;;;;;4973558;28;20355;-87
2023/01/27 09:11:41;;;;;;;10.15;8.43;;;6.80;62.50;;;;;;4960586;28;20058;-86
2023/01/27 09:14:08;;;;;;;8.80;7.30;;;6.80;62.50;;;;;;4954044;28;20027;-86
2023/01/27 09:16:34;;;;;;;8.10;7.25;;;6.80;62.50;;;;;;4944745;28;20043;-86
2023/01/27 09:19:00;;;;;;;8.60;7.70;;;6.80;62.50;;;;;;4945644;28;20617;-88
2023/01/27 09:21:26;;;;;;;8.30;7.55;;;6.80;63.00;;;;;;4958977;28;20035;-85
2023/01/27 09:23:55;;;;;;;8.88;8.07;;;6.80;62.40;;;;;;4936702;29;20058;-90
2023/01/27 09:26:21;;;;;;;9.35;7.93;;;6.80;62.40;;;;;;4948749;28;20035;-84
2023/01/27 09:28:47;;;;;;;8.18;7.13;;;6.90;62.60;;;;;;4946632;28;20503;-84
2023/01/27 09:31:13;;;;;;;8.80;7.45;;;6.90;62.60;;;;;;4949837;28;20102;-82
2023/01/27 09:33:39;;;;;;;9.93;8.07;;;6.90;62.60;;;;;;4949066;28;20414;-87
2023/01/27 09:36:14;;;;;;;9.48;8.13;;;7.00;62.70;;;;;;4951138;28;20547;-86
2023/01/27 09:38:48;;;;;;;9.10;8.30;;;6.90;62.50;;;;;;4947946;28;20039;-87
2023/01/27 09:41:33;;;;;;;9.15;8.25;;;7.00;62.70;;;;;;4952431;28;20501;-80
2023/01/27 09:44:08;;;;;;;8.32;7.10;;;7.00;62.70;;;;;;4941855;28;20517;-80
2023/01/27 09:46:57;;;;;;;8.32;7.47;;;7.00;62.70;;;;;;4946358;28;20027;-79
2023/01/27 09:49:56;;;;;;;9.85;8.30;;;7.10;62.90;;;;;;4937838;28;20325;-84
2023/01/27 09:52:43;;;;;;;11.60;8.68;;;7.10;62.80;;;;;;4931412;28;20057;-84
2023/01/27 09:55:34;;;;;;;9.05;8.13;;;7.20;62.90;;;;;;4948167;28;20035;-82
2023/01/27 09:58:16;;;;;;;12.48;8.30;;;7.20;62.90;;;;;;4943983;28;20027;-87
2023/01/27 10:00:57;;;;;;;12.45;8.10;;;7.20;63.00;;;;;;4948328;28;20110;-83
2023/01/27 10:03:52;;;;;;;8.88;8.05;;;7.30;63.30;;;;;;4943368;29;20024;-84
2023/01/27 10:06:32;;;;;;;8.30;7.45;;;7.40;63.50;;;;;;4941447;29;20082;-78
2023/01/27 10:09:06;;;;;;;9.65;7.78;;;7.50;63.50;;;;;;4958426;28;20039;-77
2023/01/27 10:12:10;;;;;;;8.80;7.90;;;7.60;63.70;;;;;;4945354;28;20035;-78
2023/01/27 10:15:19;;;;;;;10.38;8.27;;;7.70;63.90;;;;;;4926595;29;20521;-79
2023/01/27 10:18:10;;;;;;;8.18;7.38;;;7.90;64.10;;;;;;4938560;29;20119;-78
2023/01/27 10:20:45;;;;;;;10.93;8.25;;;8.00;64.10;;;;;;4935790;28;20562;-82
2023/01/27 10:23:37;;;;;;;8.75;7.75;;;8.00;63.90;;;;;;4946292;29;20138;-82
2023/01/27 10:26:25;;;;;;;11.32;7.75;;;8.10;64.10;;;;;;4946666;28;20027;-83
2023/01/27 10:29:15;;;;;;;10.10;8.45;;;8.20;64.20;;;;;;4933680;29;20086;-78
2023/01/27 10:31:53;;;;;;;9.65;7.07;;;8.30;64.30;;;;;;4939783;29;20463;-81
2023/01/27 10:34:33;;;;;;;9.80;7.97;;;8.40;64.40;;;;;;4943683;29;20562;-79
2023/01/27 10:37:06;;;;;;;11.63;8.07;;;8.50;64.60;;;;;;4934592;29;20027;-80
2023/01/27 10:39:52;;;;;;;7.97;7.23;;;8.50;64.50;;;;;;4942200;28;20035;-80
2023/01/27 10:42:27;;;;;;;9.32;8.32;;;8.60;64.60;;;;;;4947404;28;20027;-82
2023/01/27 10:45:05;;;;;;;8.68;7.78;;;8.60;64.50;;;;;;4937459;29;20305;-84
2023/01/27 10:47:49;;;;;;;8.73;6.93;;;8.70;64.70;;;;;;4959484;28;20173;-88
2023/01/27 10:50:22;;;;;;;8.90;7.10;;;8.80;64.90;;;;;;4957352;28;20039;-80
2023/01/27 10:52:58;;;;;;;9.35;7.25;;;8.90;65.10;;;;;;4946698;28;20220;-78
2023/01/27 10:55:32;;;;;;;9.13;7.10;;;9.10;65.30;;;;;;4941300;28;20683;-79
2023/01/27 10:58:24;;;;;;;8.18;7.38;;;9.20;65.20;;;;;;4939397;28;20194;-80
2023/01/27 11:00:53;;;;;;;7.18;6.45;;;9.30;65.10;;;;;;4944435;29;20034;-83
2023/01/27 11:03:28;;;;;;;8.00;6.47;;;9.40;65.00;;;;;;4940855;28;20167;-83
2023/01/27 11:05:59;;;;;;;7.68;6.65;;;9.40;64.80;;;;;;4944355;29;20043;-80
2023/01/27 11:08:29;;;;;;;7.70;6.65;;;9.40;64.70;;;;;;4941690;28;20023;-80
2023/01/27 11:13:45;;;;;;;7.70;6.90;;;9.40;64.60;;;;;;4943357;29;20042;-83
2023/01/27 11:16:16;;;;;;;6.68;6.07;;;9.40;64.60;;;;;;4936445;29;20497;-83
2023/01/27 11:18:46;;;;;;;7.50;6.78;;;9.30;64.30;;;;;;4945877;28;20077;-82
2023/01/27 11:21:22;;;;;;;7.45;6.07;;;9.30;64.30;;;;;;4945027;29;20050;-83
2023/01/27 11:23:54;;;;;;;9.27;7.03;;;9.30;64.30;;;;;;4940157;29;20035;-82
2023/01/27 11:26:46;;;;;;;7.40;6.75;;;9.20;64.10;;;;;;4946370;28;20035;-82
2023/01/27 11:29:52;;;;;;;7.85;7.05;;;9.30;64.20;;;;;;4937126;29;20054;-84
2023/01/27 11:32:32;;;;;;;7.95;7.25;;;9.20;64.00;;;;;;4932652;29;20024;-79
2023/01/27 11:35:09;;;;;;;7.78;6.60;;;9.20;63.90;;;;;;4945718;29;20035;-79
2023/01/27 11:37:55;;;;;;;9.73;7.15;;;9.20;63.90;;;;;;4947195;28;20098;-80
2023/01/27 11:40:37;;;;;;;8.32;6.97;;;9.20;63.80;;;;;;4927954;29;20035;-81
2023/01/27 11:43:04;;;;;;;7.68;6.80;;;9.20;63.80;;;;;;4947395;29;20122;-82
2023/01/27 11:45:34;;;;;;;8.05;6.97;;;9.20;63.90;;;;;;4949932;29;20034;-80
2023/01/27 11:48:02;;;;;;;8.35;7.55;;;9.20;63.90;;;;;;4942853;28;20041;-81
2023/01/27 11:50:32;;;;;;;7.45;6.40;;;9.20;63.80;;;;;;4945458;28;20035;-81
2023/01/27 11:53:17;;;;;;;7.28;6.13;;;9.20;63.70;;;;;;4955812;28;20031;-81
2023/01/27 11:55:49;;;;;;;7.35;6.55;;;9.20;63.60;;;;;;4944766;28;20545;-82
2023/01/27 11:58:23;;;;;;;9.30;6.67;;;9.20;63.50;;;;;;4944966;28;20042;-81
2023/01/27 12:00:59;;;;;;;10.57;7.78;;;9.20;63.40;;;;;;4962994;28;20533;-80
2023/01/27 12:03:57;;;;;;;9.88;6.95;;;9.20;63.30;;;;;;4948314;28;20455;-83
2023/01/27 12:07:03;;;;;;;7.55;6.72;;;9.20;63.20;;;;;;4944853;28;20118;-80
2023/01/27 12:09:35;;;;;;;11.80;7.30;;;9.20;63.30;;;;;;4943425;29;20035;-79
2023/01/27 12:12:35;;;;;;;11.57;7.03;;;9.30;64.10;;;;;;4934694;28;20037;-80
2023/01/27 12:15:04;;;;;;;9.48;7.93;;;9.30;63.60;;;;;;4954597;28;20380;-79
2023/01/27 12:17:40;;;;;;;8.02;6.97;;;9.30;63.50;;;;;;4944162;28;20039;-79
2023/01/27 12:20:31;;;;;;;8.48;6.90;;;9.30;63.40;;;;;;4947022;28;20036;-80
2023/01/27 12:23:13;;;;;;;7.63;6.88;;;9.40;63.50;;;;;;4962466;28;20035;-80
2023/01/27 12:25:44;;;;;;;9.95;7.30;;;9.40;63.50;;;;;;4925853;29;20031;-79
2023/01/27 12:28:40;;;;;;;7.78;6.97;;;9.50;63.50;;;;;;4943477;28;20564;-79
2023/01/27 12:31:21;;;;;;;10.52;6.88;;;9.50;63.20;;;;;;4942486;28;20126;-78
2023/01/27 12:34:01;;;;;;;9.98;7.32;;;9.60;63.20;;;;;;4954736;28;20043;-79
2023/01/27 12:36:27;;;;;;;10.70;6.80;;;9.70;63.20;;;;;;4932527;28;20086;-78
2023/01/27 12:38:56;;;;;;;7.43;6.63;;;9.80;63.20;;;;;;4946643;28;20570;-79
2023/01/27 12:41:29;;;;;;;10.35;7.15;;;9.90;63.10;;;;;;4957296;28;20094;-79
2023/01/27 12:44:14;;;;;;;6.70;6.07;;;10.00;63.00;;;;;;4945995;28;20035;-79
2023/01/27 12:46:55;;;;;;;7.13;5.97;;;10.10;62.90;;;;;;4950113;28;20027;-81
2023/01/27 12:49:21;;;;;;;6.22;5.40;;;10.20;62.90;;;;;;4950398;28;20034;-78
2023/01/27 12:51:54;;;;;;;8.55;6.03;;;10.30;62.80;;;;;;4951136;28;20321;-81
2023/01/27 12:54:26;;;;;;;7.47;5.28;;;10.30;62.50;;;;;;4950769;28;20033;-81
2023/01/27 12:56:55;;;;;;;8.85;6.07;;;10.40;62.60;;;;;;4949631;28;20039;-80
2023/01/27 12:59:24;;;;;;;6.88;6.15;;;10.50;62.40;;;;;;4946045;28;20035;-82
2023/01/27 13:01:58;;;;;;;7.25;5.57;;;10.60;62.30;;;;;;4954705;28;20193;-82
2023/01/27 13:04:26;;;;;;;7.35;5.22;;;10.70;62.30;;;;;;4948036;28;20106;-82
2023/01/27 13:07:00;;;;;;;11.32;5.85;;;10.80;62.20;;;;;;4948382;28;20039;-82
2023/01/27 13:09:47;;;;;;;6.15;4.32;;;10.90;61.90;;;;;;4948814;28;20070;-81
2023/01/27 13:12:23;;;;;;;4.82;4.38;;;10.90;61.60;;;;;;4924434;29;22404;-81
2023/01/27 13:14:52;;;;;;;5.35;3.70;;;11.00;61.60;;;;;;4945369;28;20435;-81
2023/01/27 13:17:40;;;;;;;10.23;3.55;;;11.00;61.40;;;;;;4956719;28;20033;-82
2023/01/27 13:20:15;;;;;;;6.50;3.58;;;11.10;61.10;;;;;;4942613;28;20051;-80
2023/01/27 13:23:03;;;;;;;5.32;2.78;;;11.10;61.20;;;;;;4949598;28;20510;-82
2023/01/27 13:25:42;;;;;;;5.47;3.13;;;11.10;60.70;;;;;;4919716;28;20039;-81
2023/01/27 13:28:14;;;;;;;4.93;2.90;;;11.00;60.60;;;;;;4941313;28;20090;-80
2023/01/27 13:30:45;;;;;;;6.30;2.95;;;11.00;60.60;;;;;;4943890;28;20046;-82
2023/01/27 13:33:29;;;;;;;7.47;3.15;;;10.90;60.50;;;;;;4958503;28;20378;-81
2023/01/27 13:36:21;;;;;;;5.80;2.30;;;10.80;60.20;;;;;;4963462;28;20065;-80
2023/01/27 13:38:54;;;;;;;7.70;3.00;;;10.80;60.40;;;;;;4933868;28;20145;-82
2023/01/27 13:41:26;;;;;;;6.65;2.22;;;10.70;60.30;;;;;;4960195;28;20039;-83
2023/01/27 13:44:02;;;;;;;4.50;2.10;;;10.70;60.20;;;;;;4946277;28;20062;-85
2023/01/27 13:46:35;;;;;;;5.05;3.35;;;10.60;59.90;;;;;;4935006;28;20042;-79
2023/01/27 13:49:30;;;;;;;7.70;2.10;;;10.60;60.00;;;;;;4943542;28;20416;-78
2023/01/27 13:51:56;;;;;;;5.75;2.20;;;10.50;59.70;;;;;;4942868;28;20046;-82